Time;durP1;ratioP1;P1;durP2;ratioP2;P2;SDS_P1;SDS_P2;PMS_P1;PMS_P2;Temp;Humidity;BMP_temperature;BMP_pressure;BME280_temperature;BME280_humidity;BME280_pressure;Samples;Min_cycle;Max_cycle;Signal;HPM_P1;HPM_P2
2020/12/28 13:53:12;;;;;;;8.13;1.08;;;17.90;69.10;;;;;;5108283;27;20367;-48
2020/12/28 13:55:39;;;;;;;3.58;1.70;;;17.90;69.60;;;;;;5086673;28;20085;-53
2020/12/28 13:58:05;;;;;;;2.80;1.30;;;18.10;69.10;;;;;;5086282;28;20032;-50
2020/12/28 14:00:30;;;;;;;5.32;1.40;;;18.20;68.30;;;;;;5087811;28;21130;-55
2020/12/28 14:02:56;;;;;;;3.70;1.10;;;18.30;68.10;;;;;;5086160;28;20020;-55
2020/12/28 14:05:21;;;;;;;7.35;1.10;;;18.40;67.30;;;;;;5086239;28;20094;-58
2020/12/28 14:07:47;;;;;;;4.30;1.33;;;18.50;67.00;;;;;;5086714;28;20024;-52
2020/12/28 14:10:12;;;;;;;1.63;1.00;;;18.60;66.60;;;;;;5085229;28;20054;-55
2020/12/28 14:12:38;;;;;;;1.67;0.88;;;18.60;66.80;;;;;;5085649;28;20056;-56
2020/12/28 14:15:03;;;;;;;4.32;1.35;;;18.60;66.40;;;;;;5085940;28;20032;-56
2020/12/28 14:17:29;;;;;;;2.25;1.35;;;18.60;66.00;;;;;;5085050;28;20167;-55
2020/12/28 14:19:55;;;;;;;1.08;0.80;;;18.60;66.10;;;;;;5084656;28;20024;-53
2020/12/28 14:22:21;;;;;;;2.42;1.23;;;18.60;66.00;;;;;;5084901;28;20028;-50
2020/12/28 14:24:46;;;;;;;1.50;1.10;;;18.60;65.80;;;;;;5085063;28;20020;-53
2020/12/28 14:27:12;;;;;;;3.47;1.23;;;18.60;65.80;;;;;;5087644;28;20584;-52
2020/12/28 14:29:37;;;;;;;2.28;1.33;;;18.60;65.80;;;;;;5087368;28;20028;-55
2020/12/28 14:32:03;;;;;;;1.75;1.02;;;18.70;65.80;;;;;;5085944;28;20039;-54
2020/12/28 14:34:29;;;;;;;3.90;1.40;;;18.60;65.90;;;;;;5084834;28;20032;-56
2020/12/28 14:36:54;;;;;;;1.88;1.20;;;18.60;66.00;;;;;;5085909;28;20372;-54
2020/12/28 14:39:20;;;;;;;2.25;1.10;;;18.60;65.90;;;;;;5084978;28;20024;-51
2020/12/28 14:41:45;;;;;;;1.80;1.02;;;18.60;65.80;;;;;;5085929;28;20025;-54
2020/12/28 14:44:11;;;;;;;2.15;0.90;;;18.60;65.60;;;;;;5085138;28;20026;-46
2020/12/28 14:46:36;;;;;;;2.85;0.77;;;18.60;65.80;;;;;;5086337;28;20380;-44
2020/12/28 14:49:02;;;;;;;2.78;0.80;;;18.50;65.90;;;;;;5084476;28;20038;-46
2020/12/28 14:51:28;;;;;;;3.03;1.00;;;18.70;65.50;;;;;;5084392;28;20475;-46
2020/12/28 14:53:53;;;;;;;4.72;1.13;;;18.70;65.10;;;;;;5085353;28;20052;-45
2020/12/28 14:56:21;;;;;;;3.00;1.08;;;18.70;64.90;;;;;;5084722;28;20028;-43
2020/12/28 14:58:47;;;;;;;2.60;0.90;;;18.80;64.70;;;;;;5083913;28;20033;-46
2020/12/28 15:01:19;;;;;;;2.05;0.90;;;18.80;64.60;;;;;;5085124;28;20385;-45
2020/12/28 15:03:45;;;;;;;2.70;1.10;;;18.80;64.60;;;;;;5074573;28;20063;-45
2020/12/28 15:06:10;;;;;;;1.33;1.05;;;18.80;64.60;;;;;;5071837;28;20056;-45
2020/12/28 15:08:36;;;;;;;3.15;1.20;;;18.70;64.70;;;;;;5071231;28;20080;-46
2020/12/28 15:11:01;;;;;;;1.08;0.98;;;18.70;64.60;;;;;;5071928;28;20036;-44
2020/12/28 15:13:27;;;;;;;1.73;0.70;;;18.70;64.70;;;;;;5071451;28;20123;-47
2020/12/28 15:15:53;;;;;;;1.42;0.80;;;18.70;64.70;;;;;;5069710;28;20037;-50
2020/12/28 15:18:18;;;;;;;2.38;0.93;;;18.70;64.80;;;;;;5068874;28;20025;-56
2020/12/28 15:20:44;;;;;;;5.88;0.80;;;18.70;64.70;;;;;;5070525;28;20098;-58
2020/12/28 15:23:09;;;;;;;3.03;0.70;;;18.60;64.90;;;;;;5070169;28;20024;-44
2020/12/28 15:25:35;;;;;;;1.02;0.65;;;18.50;64.90;;;;;;5072861;28;20033;-52
2020/12/28 15:28:00;;;;;;;0.80;0.63;;;18.60;64.70;;;;;;5071403;28;20028;-48
2020/12/28 15:30:26;;;;;;;1.30;0.73;;;18.60;64.90;;;;;;5071204;28;20101;-55
2020/12/28 15:32:52;;;;;;;2.00;0.80;;;18.50;65.00;;;;;;5069401;28;20131;-53
2020/12/28 15:35:17;;;;;;;2.72;0.73;;;18.50;65.20;;;;;;5070548;28;20024;-52
2020/12/28 15:37:44;;;;;;;0.82;0.70;;;18.40;65.30;;;;;;5073344;28;20041;-53
2020/12/28 15:40:10;;;;;;;1.77;0.63;;;18.40;65.80;;;;;;5068584;28;20439;-56
2020/12/28 15:42:35;;;;;;;2.92;0.70;;;18.50;65.40;;;;;;4712994;28;10000602;-44
2020/12/28 15:45:01;;;;;;;4.32;0.70;;;18.50;65.20;;;;;;5063825;28;20040;-53
2020/12/28 15:47:27;;;;;;;2.45;0.70;;;18.60;65.10;;;;;;5062790;28;20028;-53
2020/12/28 15:49:53;;;;;;;2.13;0.80;;;18.60;64.90;;;;;;5071785;28;20025;-50
2020/12/28 15:52:18;;;;;;;3.50;1.20;;;18.60;65.00;;;;;;5064055;28;20052;-48
2020/12/28 15:54:44;;;;;;;5.97;1.02;;;18.60;65.00;;;;;;5060506;28;20697;-50
2020/12/28 15:57:09;;;;;;;4.20;0.80;;;18.60;65.00;;;;;;5061345;28;20169;-52
2020/12/28 15:59:35;;;;;;;0.82;0.70;;;18.60;65.00;;;;;;5060856;28;20023;-45
2020/12/28 16:02:02;;;;;;;1.75;0.65;;;18.50;65.00;;;;;;5062666;28;20045;-49
2020/12/28 16:04:28;;;;;;;1.92;0.63;;;18.60;65.60;;;;;;5060959;28;20020;-53
2020/12/28 16:06:53;;;;;;;0.98;0.70;;;18.50;65.10;;;;;;5059663;28;20090;-45
2020/12/28 16:09:19;;;;;;;3.60;1.65;;;18.40;66.30;;;;;;5060448;28;20027;-57
2020/12/28 16:11:44;;;;;;;2.75;1.90;;;18.40;65.70;;;;;;5063084;28;20126;-60
2020/12/28 16:14:11;;;;;;;7.25;1.35;;;18.30;65.50;;;;;;5061658;28;20613;-57
2020/12/28 16:16:37;;;;;;;3.17;1.30;;;18.30;65.60;;;;;;5061974;28;20412;-53
2020/12/28 16:19:02;;;;;;;5.68;1.63;;;18.30;65.70;;;;;;5060325;28;20039;-49
2020/12/28 16:21:28;;;;;;;3.78;1.08;;;18.30;65.80;;;;;;5064130;28;20036;-52
2020/12/28 16:23:54;;;;;;;2.40;1.48;;;18.30;65.90;;;;;;5061791;28;20462;-49
2020/12/28 16:26:19;;;;;;;4.45;1.58;;;18.30;65.80;;;;;;5065941;28;20028;-46
2020/12/28 16:28:45;;;;;;;3.42;1.08;;;18.40;65.60;;;;;;5064951;28;20021;-54
2020/12/28 16:31:12;;;;;;;1.33;1.15;;;18.50;65.10;;;;;;5064765;28;20026;-46
2020/12/28 16:33:37;;;;;;;2.60;1.23;;;18.60;64.80;;;;;;5067033;28;20447;-59
2020/12/28 16:36:14;;;;;;;3.22;1.40;;;18.60;64.70;;;;;;5067848;28;20012;-52
2020/12/28 16:38:42;;;;;;;3.90;0.90;;;18.80;64.20;;;;;;5062377;28;20032;-45
2020/12/28 16:41:08;;;;;;;1.05;0.80;;;18.90;64.00;;;;;;5065748;28;20032;-52
2020/12/28 16:43:33;;;;;;;1.00;0.80;;;18.90;63.70;;;;;;5065361;28;20040;-49
2020/12/28 16:45:59;;;;;;;1.60;0.93;;;18.90;63.60;;;;;;5065212;28;20032;-50
2020/12/28 16:48:25;;;;;;;2.80;1.10;;;18.90;63.40;;;;;;5062351;28;20124;-48
2020/12/28 16:50:51;;;;;;;9.75;1.42;;;19.00;63.30;;;;;;5060262;28;20473;-44
2020/12/28 16:53:16;;;;;;;1.95;1.02;;;19.00;63.20;;;;;;5063860;28;20123;-46
2020/12/28 16:55:42;;;;;;;2.35;0.88;;;19.00;63.10;;;;;;5060798;28;20485;-49
2020/12/28 16:58:08;;;;;;;4.10;1.17;;;19.00;64.00;;;;;;5062063;28;21433;-47
2020/12/28 17:00:34;;;;;;;2.03;1.30;;;19.00;62.90;;;;;;4709270;28;10000668;-43
2020/12/28 17:02:59;;;;;;;1.52;1.20;;;19.10;62.80;;;;;;5064992;28;20028;-47
2020/12/28 17:05:25;;;;;;;2.35;1.40;;;19.10;63.50;;;;;;5063299;28;20614;-44
2020/12/28 17:07:51;;;;;;;2.20;1.60;;;19.10;62.60;;;;;;5064980;28;20032;-54
2020/12/28 17:10:17;;;;;;;2.05;1.27;;;19.10;62.50;;;;;;5064373;28;20073;-48
2020/12/28 17:12:43;;;;;;;4.05;1.83;;;19.00;62.60;;;;;;5045195;28;20699;-44
2020/12/28 17:15:08;;;;;;;9.82;1.70;;;19.10;62.40;;;;;;5062793;28;20017;-45
2020/12/28 17:17:34;;;;;;;6.07;1.40;;;19.10;62.50;;;;;;5062531;28;20043;-47
2020/12/28 17:20:00;;;;;;;4.90;1.50;;;19.10;62.60;;;;;;5064596;28;20107;-48
2020/12/28 17:22:26;;;;;;;1.95;1.35;;;19.10;62.80;;;;;;5062225;28;20067;-42
2020/12/28 17:24:54;;;;;;;4.15;1.38;;;19.10;63.00;;;;;;5060185;28;20396;-45
2020/12/28 17:27:19;;;;;;;4.10;1.60;;;19.10;63.00;;;;;;5059527;28;20036;-46
2020/12/28 17:29:45;;;;;;;1.83;1.50;;;19.20;62.80;;;;;;5064029;28;20035;-46
2020/12/28 17:32:11;;;;;;;1.60;1.45;;;19.20;62.90;;;;;;5064540;28;20687;-45
2020/12/28 17:34:37;;;;;;;3.33;1.35;;;19.20;62.80;;;;;;5062471;28;20033;-43
2020/12/28 17:37:02;;;;;;;3.00;1.52;;;19.20;62.80;;;;;;5064417;28;20039;-42
2020/12/28 17:39:29;;;;;;;1.27;1.17;;;19.20;62.60;;;;;;5050439;28;20517;-46
2020/12/28 17:41:54;;;;;;;2.72;1.20;;;19.20;62.60;;;;;;5064710;28;20028;-44
2020/12/28 17:44:20;;;;;;;1.95;1.50;;;19.20;62.60;;;;;;5063901;28;20082;-44
2020/12/28 17:46:45;;;;;;;3.15;1.38;;;19.20;62.50;;;;;;5063646;28;20021;-42
2020/12/28 17:49:11;;;;;;;2.05;1.55;;;19.20;62.60;;;;;;5039730;28;20037;-44
2020/12/28 17:51:37;;;;;;;5.05;1.30;;;19.20;62.60;;;;;;5060624;28;20508;-44
2020/12/28 17:54:02;;;;;;;3.58;0.98;;;19.20;63.60;;;;;;5062231;28;20136;-43
2020/12/28 17:56:28;;;;;;;4.32;1.40;;;19.10;62.70;;;;;;5079733;28;20040;-45
2020/12/28 17:58:54;;;;;;;1.38;0.98;;;19.10;62.70;;;;;;5064177;28;20064;-47
2020/12/28 18:01:20;;;;;;;2.10;1.48;;;19.10;62.70;;;;;;5064280;28;20036;-45
2020/12/28 18:03:46;;;;;;;3.00;1.30;;;19.10;62.70;;;;;;5063669;28;20423;-44
2020/12/28 18:06:12;;;;;;;2.33;1.20;;;19.10;62.70;;;;;;5063832;28;20025;-47
2020/12/28 18:08:38;;;;;;;1.75;1.00;;;19.10;62.70;;;;;;5064452;28;20788;-45
2020/12/28 18:11:04;;;;;;;1.10;1.00;;;19.10;62.80;;;;;;5062812;28;20559;-42
2020/12/28 18:13:29;;;;;;;1.95;0.88;;;19.10;62.70;;;;;;5064446;28;20093;-42
2020/12/28 18:15:55;;;;;;;9.90;1.20;;;19.10;62.60;;;;;;5065262;28;20032;-44
2020/12/28 18:18:21;;;;;;;1.92;1.20;;;19.20;62.60;;;;;;5059902;28;20050;-48
2020/12/28 18:20:49;;;;;;;1.90;1.08;;;19.20;62.50;;;;;;5062312;28;20028;-48
2020/12/28 18:23:15;;;;;;;2.25;1.02;;;19.20;62.50;;;;;;5061958;28;20028;-46
2020/12/28 18:25:41;;;;;;;3.95;1.50;;;19.20;62.40;;;;;;5061983;28;20369;-44
2020/12/28 18:28:07;;;;;;;1.35;0.95;;;19.20;62.20;;;;;;5059615;28;20039;-47
2020/12/28 18:30:32;;;;;;;1.55;0.90;;;19.20;62.30;;;;;;5062446;28;20164;-43
2020/12/28 18:32:58;;;;;;;2.13;1.40;;;19.20;62.20;;;;;;5064341;28;20043;-46
2020/12/28 18:35:23;;;;;;;2.42;1.17;;;19.20;62.30;;;;;;5063252;28;20024;-44
2020/12/28 18:37:49;;;;;;;2.63;0.98;;;19.20;62.30;;;;;;5065831;28;20679;-42
2020/12/28 18:40:14;;;;;;;2.42;0.80;;;19.30;62.30;;;;;;5070451;28;20029;-42
2020/12/28 18:42:40;;;;;;;4.55;1.40;;;19.20;62.30;;;;;;5071551;28;20044;-48
2020/12/28 18:45:05;;;;;;;2.97;1.17;;;19.20;62.20;;;;;;5069917;28;20017;-50
2020/12/28 18:47:31;;;;;;;2.53;2.13;;;19.20;62.10;;;;;;5065877;28;20063;-50
2020/12/28 18:49:56;;;;;;;4.20;2.20;;;19.20;62.10;;;;;;5069963;28;20025;-44
2020/12/28 18:52:22;;;;;;;4.15;2.92;;;19.20;61.90;;;;;;5071974;28;20040;-46
2020/12/28 18:54:48;;;;;;;5.43;2.60;;;19.20;62.00;;;;;;5051806;28;20628;-51
2020/12/28 18:57:13;;;;;;;4.10;2.60;;;19.10;62.20;;;;;;5067955;28;20028;-42
2020/12/28 18:59:39;;;;;;;5.20;2.72;;;19.20;62.10;;;;;;5067190;28;20808;-43
2020/12/28 19:02:05;;;;;;;3.10;2.78;;;19.10;62.30;;;;;;5066481;28;20135;-41
2020/12/28 19:04:32;;;;;;;4.68;2.00;;;19.20;62.30;;;;;;5069555;28;20054;-47
2020/12/28 19:06:58;;;;;;;2.53;2.33;;;19.10;61.90;;;;;;5066362;28;20602;-44
2020/12/28 19:09:24;;;;;;;3.20;2.40;;;19.10;62.00;;;;;;5067962;28;20421;-44
2020/12/28 19:11:57;;;;;;;7.18;2.05;;;19.10;62.20;;;;;;5065076;28;20110;-45
2020/12/28 19:14:23;;;;;;;4.05;2.17;;;19.00;62.20;;;;;;5066111;28;20111;-39
2020/12/28 19:16:49;;;;;;;3.00;2.30;;;19.00;62.30;;;;;;5068487;28;20415;-52
2020/12/28 19:19:15;;;;;;;4.63;2.70;;;19.00;62.30;;;;;;5064938;28;20029;-46
2020/12/28 19:21:40;;;;;;;3.10;2.50;;;19.10;62.20;;;;;;5067888;28;20032;-43
2020/12/28 19:24:07;;;;;;;4.35;2.70;;;19.10;62.90;;;;;;5065668;28;20027;-42
2020/12/28 19:26:32;;;;;;;4.38;2.97;;;19.10;62.10;;;;;;5066658;28;20032;-44
2020/12/28 19:28:58;;;;;;;5.72;3.05;;;19.10;62.20;;;;;;5065258;28;20089;-43
2020/12/28 19:31:23;;;;;;;3.65;2.47;;;19.20;62.20;;;;;;5065985;28;20496;-41
2020/12/28 19:33:49;;;;;;;4.18;2.95;;;19.20;61.90;;;;;;5063586;28;20033;-44
2020/12/28 19:36:17;;;;;;;4.60;3.03;;;19.20;62.20;;;;;;5064581;28;20032;-43
2020/12/28 19:38:42;;;;;;;3.28;2.97;;;19.30;62.20;;;;;;5081952;28;20036;-45
2020/12/28 19:41:09;;;;;;;5.80;2.95;;;19.20;62.30;;;;;;5067692;28;20032;-44
2020/12/28 19:43:35;;;;;;;5.35;3.00;;;19.20;62.30;;;;;;5066063;28;20036;-48
2020/12/28 19:46:00;;;;;;;3.45;3.08;;;19.20;62.40;;;;;;5082078;28;20028;-47
2020/12/28 19:48:26;;;;;;;2.83;2.63;;;19.20;62.00;;;;;;5065303;28;20035;-46
2020/12/28 19:50:51;;;;;;;5.45;4.03;;;19.20;62.30;;;;;;5066921;28;20031;-45
2020/12/28 19:53:17;;;;;;;2.95;2.67;;;19.30;62.10;;;;;;5067808;28;20540;-52
2020/12/28 19:55:43;;;;;;;3.63;3.25;;;19.30;62.30;;;;;;5069294;28;20043;-56
2020/12/28 19:58:09;;;;;;;3.13;2.55;;;19.20;62.30;;;;;;5067323;28;20025;-47
2020/12/28 20:00:34;;;;;;;8.10;3.00;;;19.20;62.50;;;;;;5065435;28;20051;-53
2020/12/28 20:03:00;;;;;;;6.07;3.15;;;19.20;62.40;;;;;;5065125;28;20029;-52
2020/12/28 20:05:25;;;;;;;5.00;2.58;;;19.20;62.50;;;;;;5065398;28;20116;-52
2020/12/28 20:07:51;;;;;;;7.03;2.80;;;19.20;62.50;;;;;;5065219;28;20035;-50
2020/12/28 20:10:17;;;;;;;8.25;3.10;;;19.20;62.50;;;;;;5066797;28;20040;-54
2020/12/28 20:12:44;;;;;;;11.05;2.85;;;19.20;62.60;;;;;;5065392;28;20047;-51
2020/12/28 20:15:10;;;;;;;7.00;3.15;;;19.20;62.70;;;;;;5081600;28;20476;-58
2020/12/28 20:17:36;;;;;;;2.80;2.60;;;19.20;62.60;;;;;;5066164;28;20036;-55
2020/12/28 20:20:02;;;;;;;3.08;2.78;;;19.10;62.60;;;;;;5066880;28;20036;-52
2020/12/28 20:22:28;;;;;;;5.47;2.75;;;19.10;62.60;;;;;;5067493;28;20493;-59
2020/12/28 20:24:55;;;;;;;7.65;2.70;;;19.10;62.60;;;;;;5065380;28;20048;-43
2020/12/28 20:27:22;;;;;;;7.72;3.45;;;19.10;62.70;;;;;;5066418;28;20111;-43
2020/12/28 20:29:48;;;;;;;6.65;2.97;;;19.10;62.60;;;;;;5066771;28;20052;-49
2020/12/28 20:32:13;;;;;;;4.47;2.92;;;19.10;62.70;;;;;;5063819;28;20543;-58
2020/12/28 20:34:39;;;;;;;5.10;2.47;;;19.10;62.70;;;;;;5067469;28;20028;-53
2020/12/28 20:37:04;;;;;;;6.40;2.10;;;19.10;62.60;;;;;;5067671;28;20135;-57
2020/12/28 20:39:30;;;;;;;2.92;2.38;;;19.10;62.80;;;;;;5070474;28;20439;-54
2020/12/28 20:41:56;;;;;;;4.68;2.10;;;19.10;62.70;;;;;;5061823;28;20032;-50
2020/12/28 20:44:22;;;;;;;3.72;2.10;;;19.10;62.70;;;;;;5062131;28;20481;-49
2020/12/28 20:46:47;;;;;;;2.42;2.22;;;19.10;62.90;;;;;;5066115;28;20098;-51
2020/12/28 20:49:13;;;;;;;2.67;2.22;;;19.10;62.80;;;;;;5065848;28;20098;-53
2020/12/28 20:51:39;;;;;;;3.15;2.00;;;19.00;62.70;;;;;;5064749;28;20062;-51
2020/12/28 20:54:07;;;;;;;3.05;1.90;;;19.00;63.00;;;;;;5066358;28;20040;-49
2020/12/28 20:56:33;;;;;;;3.47;2.13;;;19.00;63.00;;;;;;5065913;28;20066;-55
2020/12/28 20:58:59;;;;;;;3.78;1.83;;;19.00;63.00;;;;;;5065123;28;20028;-53
2020/12/28 21:01:25;;;;;;;9.07;2.30;;;19.10;63.00;;;;;;5065118;28;20035;-49
2020/12/28 21:03:50;;;;;;;2.42;2.22;;;19.10;63.00;;;;;;5063041;28;20027;-57
2020/12/28 21:06:16;;;;;;;1.77;1.58;;;19.10;63.10;;;;;;5065395;28;20028;-55
2020/12/28 21:08:41;;;;;;;5.35;1.85;;;19.10;63.20;;;;;;5065483;28;20495;-46
2020/12/28 21:11:07;;;;;;;2.40;2.03;;;19.00;63.10;;;;;;5064021;28;20043;-56
2020/12/28 21:13:33;;;;;;;2.13;1.92;;;19.00;63.00;;;;;;5065500;28;20066;-56
2020/12/28 21:15:58;;;;;;;2.47;1.85;;;19.00;63.10;;;;;;5064179;28;20651;-54
2020/12/28 21:18:24;;;;;;;1.52;1.25;;;19.00;63.10;;;;;;5064481;28;20036;-50
2020/12/28 21:20:49;;;;;;;1.30;1.20;;;19.00;63.20;;;;;;5065929;28;20487;-56
2020/12/28 21:23:15;;;;;;;3.20;1.80;;;19.00;63.20;;;;;;5064407;28;20489;-46
2020/12/28 21:25:41;;;;;;;5.03;1.63;;;19.00;63.20;;;;;;5068204;28;20024;-51
2020/12/28 21:28:06;;;;;;;2.40;1.80;;;19.00;64.00;;;;;;5062429;28;20393;-47
2020/12/28 21:30:32;;;;;;;3.58;1.60;;;19.00;63.30;;;;;;5065412;28;20128;-52
2020/12/28 21:32:58;;;;;;;1.88;1.42;;;19.00;63.20;;;;;;5067523;28;20036;-58
2020/12/28 21:35:23;;;;;;;2.95;1.35;;;19.00;63.30;;;;;;5064401;28;20013;-49
2020/12/28 21:37:49;;;;;;;1.60;1.40;;;19.00;63.20;;;;;;5065625;28;20033;-57
2020/12/28 21:40:15;;;;;;;3.83;1.25;;;19.00;63.20;;;;;;5063322;28;20032;-54
2020/12/28 21:42:40;;;;;;;1.30;1.20;;;19.00;63.30;;;;;;5064346;28;20032;-47
2020/12/28 21:45:06;;;;;;;2.63;1.25;;;19.00;64.00;;;;;;5064615;28;20051;-55
2020/12/28 21:47:32;;;;;;;2.47;1.20;;;19.00;63.20;;;;;;5061753;28;20063;-48
2020/12/28 21:49:58;;;;;;;1.58;1.40;;;18.90;63.10;;;;;;5064473;28;20100;-53
2020/12/28 21:52:23;;;;;;;1.33;1.27;;;19.00;63.30;;;;;;5064566;28;20144;-58
2020/12/28 21:54:49;;;;;;;1.73;1.50;;;19.00;63.90;;;;;;5064258;28;20028;-55
2020/12/28 21:57:14;;;;;;;1.83;1.42;;;19.00;63.10;;;;;;5060844;28;20037;-58
2020/12/28 21:59:40;;;;;;;1.45;0.98;;;19.00;63.00;;;;;;5059567;28;20028;-51
2020/12/28 22:02:34;;;;;;;1.45;1.35;;;19.00;63.00;;;;;;5064243;28;20582;-50
2020/12/28 22:05:00;;;;;;;2.20;1.20;;;19.00;62.80;;;;;;5064319;28;20048;-48
2020/12/28 22:07:25;;;;;;;1.15;1.00;;;19.00;63.10;;;;;;5065849;28;20086;-53
2020/12/28 22:09:51;;;;;;;1.58;1.45;;;19.00;62.90;;;;;;5066352;28;20803;-54
2020/12/28 22:12:16;;;;;;;0.98;0.88;;;19.00;62.80;;;;;;5064838;28;20051;-59
2020/12/28 22:14:42;;;;;;;1.50;1.38;;;19.00;62.70;;;;;;5069989;28;20070;-56
2020/12/28 22:17:09;;;;;;;1.10;1.00;;;19.00;62.80;;;;;;5066449;28;20044;-55
2020/12/28 22:19:35;;;;;;;4.00;1.35;;;19.00;62.80;;;;;;5069602;28;20054;-54
2020/12/28 22:22:01;;;;;;;1.95;0.98;;;19.10;62.60;;;;;;5064770;28;20037;-41
2020/12/28 22:24:26;;;;;;;0.95;0.95;;;19.10;62.60;;;;;;5066112;28;20020;-55
2020/12/28 22:26:55;;;;;;;1.20;1.10;;;19.10;62.60;;;;;;5069684;28;20074;-53
2020/12/28 22:29:21;;;;;;;0.90;0.88;;;19.10;62.60;;;;;;5065672;28;20046;-53
2020/12/28 22:31:46;;;;;;;1.83;1.27;;;19.10;62.50;;;;;;5069227;28;20458;-62
2020/12/28 22:34:12;;;;;;;1.70;1.20;;;19.10;63.10;;;;;;5068936;28;20020;-57
2020/12/28 22:36:37;;;;;;;4.13;1.10;;;19.10;62.50;;;;;;5069192;28;20119;-51
2020/12/28 22:39:04;;;;;;;1.27;1.17;;;19.10;62.60;;;;;;5070802;28;20036;-54
2020/12/28 22:41:29;;;;;;;1.10;1.00;;;19.10;62.60;;;;;;5069878;28;20135;-57
2020/12/28 22:43:55;;;;;;;5.18;1.17;;;19.10;62.30;;;;;;5072431;28;20119;-55
2020/12/28 22:46:20;;;;;;;1.85;1.08;;;19.20;62.20;;;;;;5068033;28;20055;-54
2020/12/28 22:48:46;;;;;;;1.02;0.98;;;19.20;62.00;;;;;;5070987;28;20103;-47
2020/12/28 22:51:12;;;;;;;1.40;1.30;;;19.20;62.00;;;;;;5069180;28;20049;-49
2020/12/28 22:53:37;;;;;;;1.80;1.42;;;19.20;61.70;;;;;;5067105;28;20074;-51
2020/12/28 22:56:05;;;;;;;1.15;1.05;;;19.20;61.50;;;;;;5071843;28;20028;-43
2020/12/28 22:58:31;;;;;;;0.95;0.93;;;19.30;61.40;;;;;;5070563;28;20032;-48
2020/12/28 23:00:56;;;;;;;2.55;1.10;;;19.30;61.40;;;;;;5069575;28;20362;-52
2020/12/28 23:03:22;;;;;;;1.33;0.80;;;19.30;62.10;;;;;;5073834;28;20036;-52
2020/12/28 23:05:47;;;;;;;2.42;1.10;;;19.30;61.30;;;;;;5073334;28;20412;-50
2020/12/28 23:08:13;;;;;;;1.35;1.10;;;19.20;61.20;;;;;;5073888;28;20125;-49
2020/12/28 23:10:39;;;;;;;2.58;0.95;;;19.20;61.10;;;;;;5072689;28;20028;-50
2020/12/28 23:13:05;;;;;;;0.95;0.82;;;19.20;61.10;;;;;;5069742;28;20385;-46
2020/12/28 23:15:30;;;;;;;0.80;0.70;;;19.20;61.20;;;;;;5070640;28;20069;-48
2020/12/28 23:17:57;;;;;;;1.30;0.93;;;19.20;61.20;;;;;;5073998;28;20024;-46
2020/12/28 23:20:22;;;;;;;1.02;0.93;;;19.20;61.20;;;;;;5071403;28;20377;-53
2020/12/28 23:22:48;;;;;;;1.00;0.90;;;19.20;61.10;;;;;;5073677;28;20035;-51
2020/12/28 23:25:14;;;;;;;1.35;1.20;;;19.10;61.20;;;;;;5072052;28;20476;-50
2020/12/28 23:27:42;;;;;;;2.25;1.38;;;19.20;61.10;;;;;;5073029;28;20028;-52
2020/12/28 23:30:08;;;;;;;1.33;1.10;;;19.20;61.00;;;;;;5073202;28;20503;-49
2020/12/28 23:32:33;;;;;;;1.60;1.17;;;19.20;61.80;;;;;;5071337;28;20032;-50
2020/12/28 23:34:59;;;;;;;1.27;1.08;;;19.20;61.10;;;;;;5072673;28;20518;-48
2020/12/28 23:37:24;;;;;;;1.15;1.05;;;19.10;61.20;;;;;;5071359;28;20034;-49
2020/12/28 23:39:50;;;;;;;0.80;0.80;;;19.10;61.10;;;;;;5070229;28;20024;-49
2020/12/28 23:42:15;;;;;;;1.00;0.90;;;19.10;61.00;;;;;;5068551;28;20035;-48
2020/12/28 23:44:41;;;;;;;1.35;0.80;;;19.20;60.90;;;;;;5071790;28;20025;-52
2020/12/28 23:47:07;;;;;;;1.38;0.90;;;19.20;61.10;;;;;;5065721;28;20067;-47
2020/12/28 23:49:32;;;;;;;0.95;0.93;;;19.20;60.80;;;;;;5067301;28;20112;-47
2020/12/28 23:51:58;;;;;;;0.68;0.68;;;19.20;60.80;;;;;;5071561;28;20055;-49
2020/12/28 23:54:23;;;;;;;1.02;0.93;;;19.20;60.90;;;;;;5066439;28;20052;-46
2020/12/28 23:56:49;;;;;;;0.75;0.70;;;19.10;60.80;;;;;;5068082;28;20031;-54
2020/12/28 23:59:18;;;;;;;1.30;1.00;;;19.10;60.80;;;;;;5068639;28;20039;-49
